createdAt,value
2023-04-02T00:00:10.185Z,7.97
2023-04-02T00:01:10.180Z,7.94
2023-04-02T00:02:10.227Z,7.88
2023-04-02T00:03:10.267Z,7.83
2023-04-02T00:04:10.213Z,7.82
2023-04-02T00:05:10.163Z,7.83
2023-04-02T00:06:10.109Z,7.87
2023-04-02T00:07:10.106Z,7.80
2023-04-02T00:08:10.149Z,7.93
2023-04-02T00:09:10.137Z,7.82
2023-04-02T00:10:10.111Z,7.73
2023-04-02T00:11:10.100Z,7.82
2023-04-02T00:12:10.064Z,7.82
2023-04-02T00:13:10.070Z,7.77
2023-04-02T00:14:10.117Z,7.61
2023-04-02T00:15:10.083Z,7.75
2023-04-02T00:16:10.098Z,7.77
2023-04-02T00:17:10.748Z,7.72
2023-04-02T00:18:10.064Z,7.72
2023-04-02T00:19:10.033Z,7.66
2023-04-02T00:20:10.018Z,7.63
2023-04-02T00:21:10.016Z,7.72
2023-04-02T00:22:10.035Z,7.66
2023-04-02T00:23:10.047Z,7.63
2023-04-02T00:24:10.043Z,7.70
2023-04-02T00:25:09.999Z,7.76
2023-04-02T00:26:10.002Z,7.67
2023-04-02T00:27:09.998Z,7.72
2023-04-02T00:28:10.010Z,7.58
2023-04-02T00:29:10.002Z,7.60
2023-04-02T00:30:09.954Z,7.42
2023-04-02T00:31:09.959Z,7.54
2023-04-02T00:32:09.938Z,7.51
2023-04-02T00:33:09.979Z,7.58
2023-04-02T00:34:09.945Z,7.66
2023-04-02T00:35:09.938Z,7.60
2023-04-02T00:36:09.983Z,7.56
2023-04-02T00:37:09.888Z,7.58
2023-04-02T00:38:09.933Z,7.51
2023-04-02T00:39:09.904Z,7.47
2023-04-02T00:40:09.899Z,7.51
2023-04-02T00:41:09.891Z,7.48
2023-04-02T00:42:09.856Z,7.67
2023-04-02T00:43:09.857Z,7.63
2023-04-02T00:44:09.861Z,7.60
2023-04-02T00:45:10.902Z,7.61
2023-04-02T00:46:09.899Z,7.58
2023-04-02T00:47:09.848Z,7.48
2023-04-02T00:48:09.856Z,7.67
2023-04-02T00:49:09.925Z,7.70
2023-04-02T00:50:09.848Z,7.63
2023-04-02T00:51:09.807Z,7.51
2023-04-02T00:52:09.822Z,7.56
2023-04-02T00:53:09.792Z,7.39
2023-04-02T00:54:09.812Z,7.32
2023-04-02T00:55:09.802Z,7.47
2023-04-02T00:56:09.802Z,7.45
2023-04-02T00:57:09.804Z,7.42
2023-04-02T00:58:09.768Z,7.36
2023-04-02T00:59:09.761Z,7.31
2023-04-02T01:00:09.751Z,7.21
2023-04-02T01:01:09.749Z,7.11
2023-04-02T16:44:26.026Z,6.70
2023-04-02T16:45:00.212Z,6.66
2023-04-02T16:46:00.255Z,6.78
2023-04-02T16:47:00.152Z,6.81
2023-04-02T16:48:01.197Z,6.85
2023-04-02T16:49:00.127Z,6.93
2023-04-02T16:50:00.140Z,6.79
2023-04-02T16:51:00.095Z,6.70
2023-04-02T16:52:00.103Z,6.66
2023-04-02T16:53:00.103Z,6.74
2023-04-02T16:54:02.120Z,6.89
2023-04-02T16:55:01.061Z,6.85
2023-04-02T16:56:00.124Z,6.79
2023-04-02T16:57:00.106Z,6.78
2023-04-02T16:58:00.050Z,6.69
2023-04-02T16:59:00.048Z,6.69
2023-04-02T17:00:00.052Z,6.60
2023-04-02T17:01:00.036Z,6.82
2023-04-02T17:02:00.044Z,6.89
2023-04-02T17:03:00.052Z,6.96
2023-04-02T17:04:00.176Z,6.99
2023-04-02T17:05:00.006Z,7.02
2023-04-02T17:06:00.006Z,7.00
2023-04-02T17:06:59.999Z,7.00
2023-04-02T17:07:59.985Z,7.00
2023-04-02T17:08:59.997Z,6.99
2023-04-02T17:09:59.972Z,7.02
2023-04-02T17:10:59.969Z,6.97
2023-04-02T17:11:59.931Z,7.03
2023-04-02T17:12:59.956Z,7.07
2023-04-02T17:13:59.930Z,7.13
2023-04-02T17:15:00.019Z,7.15
2023-04-02T17:16:01.006Z,7.20
2023-04-02T17:16:59.926Z,7.18
2023-04-02T17:17:59.991Z,7.13
2023-04-02T17:18:59.925Z,6.84
2023-04-02T17:19:59.926Z,6.82
2023-04-02T17:20:59.911Z,6.85
2023-04-02T17:21:59.895Z,6.78
2023-04-02T17:22:59.915Z,6.69
2023-04-02T17:23:59.911Z,6.87
2023-04-02T17:24:59.956Z,6.82
2023-04-02T17:25:59.884Z,6.92
2023-04-02T17:26:59.887Z,6.85
2023-04-02T17:27:59.874Z,6.82
2023-04-02T17:29:00.850Z,6.78
2023-04-02T17:29:59.882Z,6.84
2023-04-02T17:30:59.847Z,6.92
2023-04-02T17:32:01.668Z,6.81
2023-04-02T17:33:00.906Z,6.78
2023-04-02T17:33:59.801Z,6.57
2023-04-02T17:34:59.822Z,6.57
2023-04-02T17:35:59.883Z,6.51
2023-04-02T17:36:59.817Z,6.48
2023-04-02T17:37:59.810Z,6.56
2023-04-02T17:38:59.782Z,6.38
2023-04-02T17:39:59.786Z,6.31
2023-04-02T17:40:59.781Z,6.20
2023-04-02T17:41:59.756Z,6.33
2023-04-02T17:42:59.758Z,6.31
2023-04-02T17:43:59.744Z,6.30
2023-04-02T17:44:59.742Z,6.31
2023-04-02T17:45:59.798Z,6.42
2023-04-02T17:46:59.751Z,6.36
2023-04-02T17:47:59.818Z,6.38
2023-04-02T17:49:01.417Z,6.27
2023-04-02T17:49:59.776Z,6.17
2023-04-02T17:50:59.740Z,6.20
2023-04-02T17:51:59.704Z,6.35
2023-04-02T17:53:00.670Z,6.45
2023-04-02T17:53:59.682Z,6.36
2023-04-02T17:54:59.680Z,6.31
2023-04-02T17:55:59.667Z,6.28
2023-04-02T17:56:59.672Z,6.20
2023-04-02T17:58:00.712Z,6.04
2023-04-02T17:58:59.666Z,5.93
2023-04-02T17:59:59.647Z,5.83
2023-04-02T18:00:59.662Z,5.79
2023-04-02T18:01:59.648Z,5.64
2023-04-02T18:02:59.827Z,5.65
2023-04-02T18:03:59.689Z,5.48
2023-04-02T18:04:59.604Z,5.57
2023-04-02T18:05:59.597Z,5.61
2023-04-02T18:07:00.604Z,5.82
2023-04-02T18:07:59.600Z,6.04
2023-04-02T18:08:59.620Z,5.91
2023-04-02T18:09:59.704Z,6.19
2023-04-02T18:10:59.546Z,6.17
2023-04-02T18:12:00.523Z,6.27
2023-04-02T18:12:59.545Z,6.46
2023-04-02T18:13:59.528Z,6.31
2023-04-02T18:14:59.570Z,6.30
2023-04-02T18:15:59.514Z,6.49
2023-04-02T18:16:59.628Z,6.44
2023-04-02T18:18:00.282Z,6.31
2023-04-02T18:18:59.492Z,6.31
2023-04-02T18:19:59.520Z,6.51
2023-04-02T18:20:59.525Z,6.56
2023-04-02T18:21:59.485Z,6.54
2023-04-02T18:22:59.500Z,6.57
2023-04-02T18:23:59.453Z,6.51
2023-04-02T18:24:59.517Z,6.46
2023-04-02T18:25:59.445Z,6.41
2023-04-02T18:26:59.446Z,6.36
2023-04-02T18:27:59.460Z,6.30
2023-04-02T18:28:59.455Z,6.17
2023-04-02T18:29:59.444Z,6.08
2023-04-02T18:30:59.448Z,5.89
2023-04-02T18:31:59.452Z,5.98
2023-04-02T18:32:59.519Z,5.87
2023-04-02T18:33:59.443Z,5.87
2023-04-02T18:34:59.428Z,5.87
2023-04-02T18:35:59.456Z,6.01
2023-04-02T18:36:59.395Z,5.87
2023-04-02T18:37:59.408Z,6.04
2023-04-02T18:38:59.378Z,6.08
2023-04-02T18:39:59.371Z,6.08
2023-04-02T18:40:59.367Z,6.11
2023-04-02T18:41:59.377Z,6.07
2023-04-02T18:42:59.333Z,6.08
2023-04-02T18:43:59.322Z,5.94
2023-04-02T18:44:59.357Z,5.89
2023-04-02T18:45:59.367Z,5.83
2023-04-02T18:46:59.325Z,5.79
2023-04-02T18:47:59.342Z,5.80
2023-04-02T18:48:59.325Z,5.62
2023-04-02T18:49:59.316Z,5.57
2023-04-02T18:50:59.303Z,5.54
2023-04-02T18:51:59.281Z,5.47
2023-04-02T18:52:59.300Z,5.43
2023-04-02T18:53:59.262Z,5.44
2023-04-02T18:54:59.276Z,5.57
2023-04-02T18:55:59.258Z,5.64
2023-04-02T18:56:59.289Z,5.66
2023-04-02T18:57:59.348Z,5.57
2023-04-02T18:59:00.241Z,5.61
2023-04-02T18:59:59.226Z,5.56
2023-04-02T19:01:00.149Z,5.72
2023-04-02T19:01:59.195Z,5.65
2023-04-02T19:02:59.461Z,5.71
2023-04-02T19:03:59.264Z,5.61
2023-04-02T19:04:59.183Z,5.72
2023-04-02T19:05:59.198Z,5.73
2023-04-02T19:06:59.242Z,5.68
2023-04-02T19:07:59.172Z,5.69
2023-04-02T19:08:59.157Z,5.72
2023-04-02T19:09:59.143Z,5.73
2023-04-02T19:10:59.140Z,5.68
2023-04-02T19:11:59.143Z,5.69
2023-04-02T19:12:59.124Z,5.59
2023-04-02T19:13:59.121Z,5.66
2023-04-02T19:15:00.149Z,5.62
2023-04-02T19:16:00.097Z,5.57
2023-04-02T19:17:00.154Z,5.54
2023-04-02T19:17:59.189Z,5.54
2023-04-02T19:18:59.095Z,5.48
2023-04-02T19:19:59.076Z,5.47
2023-04-02T19:20:59.074Z,5.39
2023-04-02T19:21:59.874Z,5.53
2023-04-02T19:22:59.088Z,5.54
2023-04-02T19:23:59.066Z,5.53
2023-04-02T19:24:59.085Z,5.65
2023-04-02T19:25:59.107Z,5.72
2023-04-02T19:26:59.035Z,5.66
2023-04-02T19:27:59.021Z,5.68
2023-04-02T19:28:59.067Z,5.71
2023-04-02T19:29:59.179Z,5.69
2023-04-02T19:30:59.024Z,5.68
2023-04-02T19:32:00.033Z,5.86
2023-04-02T19:32:59.052Z,5.90
2023-04-02T19:33:59.177Z,5.97
2023-04-02T19:34:58.995Z,6.09
2023-04-02T19:35:59.034Z,6.14
2023-04-02T19:36:59.024Z,6.12
2023-04-02T19:37:58.974Z,5.93
2023-04-02T19:38:58.933Z,5.93
2023-04-02T19:39:58.973Z,5.84
2023-04-02T19:40:59.017Z,5.68
2023-04-02T19:41:58.992Z,5.69
2023-04-02T19:42:58.914Z,5.56
2023-04-02T19:43:58.920Z,5.53
2023-04-02T19:44:58.897Z,5.54
2023-04-02T19:45:58.908Z,5.36
2023-04-02T19:46:59.074Z,5.38
2023-04-02T19:47:58.977Z,5.28
2023-04-02T19:48:58.895Z,5.29
2023-04-02T19:49:58.890Z,5.18
2023-04-02T19:50:58.867Z,5.26
2023-04-02T19:51:58.851Z,5.17
2023-04-02T19:52:58.829Z,5.15
2023-04-02T19:53:58.856Z,5.20
2023-04-02T19:54:58.880Z,5.17
2023-04-02T19:55:58.900Z,5.18
2023-04-02T19:56:58.941Z,5.15
2023-04-02T19:58:12.583Z,5.21
2023-04-02T19:59:07.782Z,5.18
2023-04-02T20:00:00.801Z,5.07
2023-04-02T20:00:58.857Z,5.15
2023-04-02T20:01:58.806Z,5.18
2023-04-02T20:02:58.852Z,5.15
2023-04-02T20:03:58.774Z,5.17
2023-04-02T20:04:58.851Z,5.29
2023-04-02T20:05:58.770Z,5.21
2023-04-02T20:06:58.753Z,5.23
2023-04-02T20:07:58.762Z,5.18
2023-04-02T20:08:58.719Z,5.15
2023-04-02T20:09:58.714Z,5.17
2023-04-02T20:10:58.720Z,5.20
2023-04-02T20:11:58.707Z,5.11
2023-04-02T20:12:58.706Z,5.15
2023-04-02T20:13:58.680Z,5.18
2023-04-02T20:14:58.668Z,5.26
2023-04-02T20:15:58.692Z,5.21
2023-04-02T20:16:58.737Z,5.29
2023-04-02T20:17:58.685Z,5.35
2023-04-02T20:18:58.654Z,5.39
2023-04-02T20:19:58.651Z,5.43
2023-04-02T20:20:58.694Z,5.48
2023-04-02T20:21:58.624Z,5.48
2023-04-02T20:22:59.632Z,5.54
2023-04-02T20:23:58.622Z,5.66
2023-04-02T20:24:58.704Z,5.59
2023-04-02T20:25:58.615Z,5.69
2023-04-02T20:26:58.599Z,5.72
2023-04-02T20:27:58.600Z,5.68
2023-04-02T20:28:58.596Z,5.84
2023-04-02T20:29:58.591Z,5.90
2023-04-02T20:30:58.655Z,6.04
2023-04-02T20:32:00.348Z,6.09
2023-04-02T20:32:58.744Z,6.17
2023-04-02T20:33:58.762Z,6.28
2023-04-02T20:34:58.563Z,6.22
2023-04-02T20:35:58.567Z,6.09
2023-04-02T20:36:58.562Z,5.80
2023-04-02T20:37:58.545Z,5.73
2023-04-02T20:38:58.511Z,5.65
2023-04-02T20:39:58.525Z,5.64
2023-04-02T20:40:59.532Z,5.57
2023-04-02T20:41:58.494Z,5.65
2023-04-02T20:42:58.499Z,5.71
2023-04-02T20:43:58.493Z,5.64
2023-04-02T20:44:58.532Z,5.76
2023-04-02T20:45:58.552Z,5.76
2023-04-02T20:46:58.476Z,5.83
2023-04-02T20:47:58.513Z,5.89
2023-04-02T20:48:58.461Z,5.91
2023-04-02T20:49:58.445Z,5.98
2023-04-02T20:50:58.628Z,6.07
2023-04-02T20:51:58.428Z,6.11
2023-04-02T20:52:58.439Z,6.30
2023-04-02T20:53:58.418Z,6.28
2023-04-02T20:54:58.430Z,6.26
2023-04-02T20:55:58.406Z,6.35
2023-04-02T20:56:58.444Z,6.48
2023-04-02T20:57:58.415Z,6.49
2023-04-02T20:58:58.369Z,6.57
2023-04-02T20:59:58.394Z,6.59
2023-04-02T21:00:58.399Z,6.66
2023-04-02T21:01:58.413Z,6.62
2023-04-02T21:02:58.406Z,6.45
2023-04-02T21:03:58.359Z,6.36
2023-04-02T21:04:58.395Z,5.82
2023-04-02T21:05:58.355Z,5.79
2023-04-02T21:06:58.327Z,5.68
2023-04-02T21:07:58.335Z,5.73
2023-04-02T21:08:58.331Z,5.69
2023-04-02T21:09:58.406Z,5.80
2023-04-02T21:10:58.676Z,5.79
2023-04-02T21:11:58.297Z,5.86
2023-04-02T21:12:58.301Z,5.80
2023-04-02T21:13:58.285Z,5.66
2023-04-02T21:15:00.223Z,5.75
2023-04-02T21:15:58.308Z,5.75
2023-04-02T21:16:58.299Z,5.75
2023-04-02T21:17:58.344Z,5.79
2023-04-02T21:18:58.261Z,5.76
2023-04-02T21:19:58.262Z,5.90
2023-04-02T21:20:58.240Z,6.01
2023-04-02T21:21:58.268Z,5.90
2023-04-02T21:22:58.223Z,6.16
2023-04-02T21:23:58.212Z,6.14
2023-04-02T21:24:58.219Z,5.94
2023-04-02T21:25:58.226Z,5.99
2023-04-02T21:26:58.185Z,6.17
2023-04-02T21:27:58.182Z,6.19
2023-04-02T21:28:58.210Z,6.14
2023-04-02T21:29:58.195Z,6.20
2023-04-02T21:30:58.172Z,6.11
2023-04-02T21:31:59.798Z,6.09
2023-04-02T21:32:58.184Z,6.12
2023-04-02T21:33:58.139Z,6.08
2023-04-02T21:34:58.145Z,6.16
2023-04-02T21:35:58.188Z,6.16
2023-04-02T21:36:58.134Z,6.17
2023-04-02T21:37:58.153Z,6.12
2023-04-02T21:38:58.131Z,6.11
2023-04-02T21:39:58.120Z,6.08
2023-04-02T21:40:58.130Z,6.11
2023-04-02T21:41:58.120Z,6.11
2023-04-02T21:42:58.078Z,6.04
2023-04-02T21:43:58.071Z,6.04
2023-04-02T21:44:58.100Z,5.91
